Terminal Aerodrome Forecast
Issued by NWS Melbourne, FL

Current Version | Previous Version | Text Only | Print | Product List | Glossary On
Versions: 1 2 3 4 5 6 7 8 9 10 11 12 13
219
FTUS42 KMLB 272320
TAFVRB
TAF
KVRB 272320Z 2800/2824 12008KT P6SM FEW035
     FM280200 12003KT P6SM SKC
     FM281400 11009KT P6SM FEW025=

USA.gov is the U.S. government's official web portal to all federal, state and local government web resources and services.